sensor_id;sensor_type;location;lat;lon;timestamp;P1;durP1;ratioP1;P2;durP2;ratioP2
24547;SDS011;12713;51.624;4.924;2023-04-25T00:00:19;19.20;;;5.97;;
24547;SDS011;12713;51.624;4.924;2023-04-25T00:02:45;16.35;;;6.00;;
24547;SDS011;12713;51.624;4.924;2023-04-25T00:05:11;15.02;;;4.72;;
24547;SDS011;12713;51.624;4.924;2023-04-25T00:07:40;16.75;;;6.25;;
24547;SDS011;12713;51.624;4.924;2023-04-25T00:10:07;18.77;;;6.47;;
24547;SDS011;12713;51.624;4.924;2023-04-25T00:12:34;16.20;;;6.57;;
24547;SDS011;12713;51.624;4.924;2023-04-25T00:15:00;13.20;;;5.25;;
24547;SDS011;12713;51.624;4.924;2023-04-25T00:17:26;15.18;;;6.63;;
24547;SDS011;12713;51.624;4.924;2023-04-25T00:19:53;26.15;;;6.82;;
24547;SDS011;12713;51.624;4.924;2023-04-25T00:22:20;13.10;;;5.03;;
24547;SDS011;12713;51.624;4.924;2023-04-25T00:24:46;19.08;;;5.82;;
24547;SDS011;12713;51.624;4.924;2023-04-25T00:27:12;15.00;;;6.05;;
24547;SDS011;12713;51.624;4.924;2023-04-25T00:29:38;15.77;;;5.45;;
24547;SDS011;12713;51.624;4.924;2023-04-25T00:32:04;18.45;;;6.20;;
24547;SDS011;12713;51.624;4.924;2023-04-25T00:34:30;17.20;;;6.00;;
24547;SDS011;12713;51.624;4.924;2023-04-25T00:36:56;14.93;;;4.90;;
24547;SDS011;12713;51.624;4.924;2023-04-25T00:39:22;18.33;;;6.85;;
24547;SDS011;12713;51.624;4.924;2023-04-25T00:41:48;16.88;;;5.40;;
24547;SDS011;12713;51.624;4.924;2023-04-25T00:44:18;15.88;;;5.60;;
24547;SDS011;12713;51.624;4.924;2023-04-25T00:46:44;18.85;;;6.10;;
24547;SDS011;12713;51.624;4.924;2023-04-25T00:49:11;16.52;;;6.72;;
24547;SDS011;12713;51.624;4.924;2023-04-25T00:51:40;17.38;;;5.45;;
24547;SDS011;12713;51.624;4.924;2023-04-25T00:54:07;18.88;;;6.20;;
24547;SDS011;12713;51.624;4.924;2023-04-25T00:56:33;14.30;;;5.22;;
24547;SDS011;12713;51.624;4.924;2023-04-25T00:58:59;22.05;;;6.22;;
24547;SDS011;12713;51.624;4.924;2023-04-25T01:01:25;16.95;;;5.50;;
24547;SDS011;12713;51.624;4.924;2023-04-25T01:03:51;25.48;;;6.55;;
24547;SDS011;12713;51.624;4.924;2023-04-25T01:06:19;19.75;;;5.55;;
24547;SDS011;12713;51.624;4.924;2023-04-25T01:08:45;21.27;;;5.70;;
24547;SDS011;12713;51.624;4.924;2023-04-25T01:11:11;14.20;;;6.10;;
24547;SDS011;12713;51.624;4.924;2023-04-25T01:13:37;18.33;;;6.68;;
24547;SDS011;12713;51.624;4.924;2023-04-25T01:16:03;22.08;;;7.10;;
24547;SDS011;12713;51.624;4.924;2023-04-25T01:18:29;20.80;;;7.07;;
24547;SDS011;12713;51.624;4.924;2023-04-25T01:20:55;20.63;;;7.22;;
24547;SDS011;12713;51.624;4.924;2023-04-25T01:23:23;17.38;;;6.20;;
24547;SDS011;12713;51.624;4.924;2023-04-25T01:25:49;20.85;;;6.07;;
24547;SDS011;12713;51.624;4.924;2023-04-25T01:28:15;14.80;;;6.15;;
24547;SDS011;12713;51.624;4.924;2023-04-25T01:30:42;14.80;;;6.22;;
24547;SDS011;12713;51.624;4.924;2023-04-25T01:33:08;17.05;;;6.53;;
24547;SDS011;12713;51.624;4.924;2023-04-25T01:35:34;13.45;;;5.55;;
24547;SDS011;12713;51.624;4.924;2023-04-25T01:38:00;19.73;;;6.35;;
24547;SDS011;12713;51.624;4.924;2023-04-25T01:40:27;18.13;;;5.40;;
24547;SDS011;12713;51.624;4.924;2023-04-25T01:42:53;20.00;;;6.20;;
24547;SDS011;12713;51.624;4.924;2023-04-25T01:45:20;20.08;;;5.82;;
24547;SDS011;12713;51.624;4.924;2023-04-25T01:47:46;12.45;;;5.40;;
24547;SDS011;12713;51.624;4.924;2023-04-25T01:50:14;17.58;;;5.82;;
24547;SDS011;12713;51.624;4.924;2023-04-25T01:52:41;21.95;;;6.03;;
24547;SDS011;12713;51.624;4.924;2023-04-25T01:55:07;16.90;;;5.20;;
24547;SDS011;12713;51.624;4.924;2023-04-25T01:57:33;11.93;;;4.85;;
24547;SDS011;12713;51.624;4.924;2023-04-25T02:00:00;17.67;;;7.63;;
24547;SDS011;12713;51.624;4.924;2023-04-25T02:02:26;21.38;;;6.13;;
24547;SDS011;12713;51.624;4.924;2023-04-25T02:04:52;12.45;;;5.13;;
24547;SDS011;12713;51.624;4.924;2023-04-25T02:07:19;14.95;;;5.68;;
24547;SDS011;12713;51.624;4.924;2023-04-25T02:09:46;18.58;;;5.28;;
24547;SDS011;12713;51.624;4.924;2023-04-25T02:12:12;24.60;;;6.25;;
24547;SDS011;12713;51.624;4.924;2023-04-25T02:14:38;21.17;;;6.82;;
24547;SDS011;12713;51.624;4.924;2023-04-25T02:17:04;20.30;;;6.07;;
24547;SDS011;12713;51.624;4.924;2023-04-25T02:19:30;17.30;;;6.30;;
24547;SDS011;12713;51.624;4.924;2023-04-25T02:21:56;16.58;;;5.60;;
24547;SDS011;12713;51.624;4.924;2023-04-25T02:24:23;16.80;;;6.00;;
24547;SDS011;12713;51.624;4.924;2023-04-25T02:26:49;16.48;;;5.13;;
24547;SDS011;12713;51.624;4.924;2023-04-25T02:29:15;16.60;;;5.70;;
24547;SDS011;12713;51.624;4.924;2023-04-25T02:31:42;17.40;;;4.70;;
24547;SDS011;12713;51.624;4.924;2023-04-25T02:34:08;13.43;;;5.03;;
24547;SDS011;12713;51.624;4.924;2023-04-25T02:36:34;13.50;;;5.32;;
24547;SDS011;12713;51.624;4.924;2023-04-25T02:39:00;18.70;;;6.20;;
24547;SDS011;12713;51.624;4.924;2023-04-25T02:41:27;20.05;;;5.80;;
24547;SDS011;12713;51.624;4.924;2023-04-25T02:43:54;19.13;;;6.35;;
24547;SDS011;12713;51.624;4.924;2023-04-25T02:46:20;22.50;;;7.10;;
24547;SDS011;12713;51.624;4.924;2023-04-25T02:48:46;20.63;;;7.22;;
24547;SDS011;12713;51.624;4.924;2023-04-25T02:51:12;17.10;;;5.35;;
24547;SDS011;12713;51.624;4.924;2023-04-25T02:53:38;11.50;;;4.65;;
24547;SDS011;12713;51.624;4.924;2023-04-25T02:56:04;15.63;;;5.55;;
24547;SDS011;12713;51.624;4.924;2023-04-25T02:58:30;17.02;;;6.28;;
24547;SDS011;12713;51.624;4.924;2023-04-25T03:00:56;14.23;;;5.25;;
24547;SDS011;12713;51.624;4.924;2023-04-25T03:03:22;23.17;;;6.13;;
24547;SDS011;12713;51.624;4.924;2023-04-25T03:05:49;17.35;;;5.80;;
24547;SDS011;12713;51.624;4.924;2023-04-25T03:08:15;15.98;;;6.38;;
24547;SDS011;12713;51.624;4.924;2023-04-25T03:10:41;19.13;;;6.35;;
24547;SDS011;12713;51.624;4.924;2023-04-25T03:13:07;19.33;;;6.13;;
24547;SDS011;12713;51.624;4.924;2023-04-25T03:15:34;12.68;;;5.68;;
24547;SDS011;12713;51.624;4.924;2023-04-25T03:18:00;13.63;;;5.80;;
24547;SDS011;12713;51.624;4.924;2023-04-25T03:20:26;18.55;;;7.43;;
24547;SDS011;12713;51.624;4.924;2023-04-25T03:22:52;16.45;;;6.60;;
24547;SDS011;12713;51.624;4.924;2023-04-25T03:25:18;18.83;;;5.28;;
24547;SDS011;12713;51.624;4.924;2023-04-25T03:27:44;19.20;;;6.68;;
24547;SDS011;12713;51.624;4.924;2023-04-25T03:30:11;15.45;;;6.70;;
24547;SDS011;12713;51.624;4.924;2023-04-25T03:32:37;19.58;;;6.85;;
24547;SDS011;12713;51.624;4.924;2023-04-25T03:35:03;16.65;;;6.10;;
24547;SDS011;12713;51.624;4.924;2023-04-25T03:37:30;13.57;;;5.60;;
24547;SDS011;12713;51.624;4.924;2023-04-25T03:39:56;19.65;;;7.75;;
24547;SDS011;12713;51.624;4.924;2023-04-25T03:42:22;14.02;;;6.60;;
24547;SDS011;12713;51.624;4.924;2023-04-25T03:44:48;18.95;;;5.60;;
24547;SDS011;12713;51.624;4.924;2023-04-25T03:47:15;13.30;;;5.85;;
24547;SDS011;12713;51.624;4.924;2023-04-25T03:49:41;17.83;;;6.05;;
24547;SDS011;12713;51.624;4.924;2023-04-25T03:52:07;13.82;;;5.97;;
24547;SDS011;12713;51.624;4.924;2023-04-25T03:54:33;12.68;;;5.35;;
24547;SDS011;12713;51.624;4.924;2023-04-25T03:56:59;18.55;;;6.57;;
24547;SDS011;12713;51.624;4.924;2023-04-25T03:59:25;18.98;;;7.28;;
24547;SDS011;12713;51.624;4.924;2023-04-25T04:01:52;13.25;;;6.25;;
24547;SDS011;12713;51.624;4.924;2023-04-25T04:04:18;16.45;;;6.40;;
24547;SDS011;12713;51.624;4.924;2023-04-25T04:06:44;18.50;;;6.75;;
24547;SDS011;12713;51.624;4.924;2023-04-25T04:09:10;20.20;;;7.00;;
24547;SDS011;12713;51.624;4.924;2023-04-25T04:11:37;31.25;;;7.15;;
24547;SDS011;12713;51.624;4.924;2023-04-25T04:14:07;16.52;;;6.75;;
24547;SDS011;12713;51.624;4.924;2023-04-25T04:16:35;13.38;;;6.03;;
24547;SDS011;12713;51.624;4.924;2023-04-25T04:19:02;17.20;;;6.13;;
24547;SDS011;12713;51.624;4.924;2023-04-25T04:21:29;20.05;;;6.18;;
24547;SDS011;12713;51.624;4.924;2023-04-25T04:23:55;23.10;;;7.70;;
24547;SDS011;12713;51.624;4.924;2023-04-25T04:26:22;13.27;;;5.85;;
24547;SDS011;12713;51.624;4.924;2023-04-25T04:28:49;12.63;;;5.80;;
24547;SDS011;12713;51.624;4.924;2023-04-25T04:31:16;9.38;;;4.97;;
24547;SDS011;12713;51.624;4.924;2023-04-25T04:33:44;18.23;;;5.55;;
24547;SDS011;12713;51.624;4.924;2023-04-25T04:36:11;23.40;;;5.60;;
24547;SDS011;12713;51.624;4.924;2023-04-25T04:38:38;15.75;;;5.95;;
24547;SDS011;12713;51.624;4.924;2023-04-25T04:41:05;8.85;;;4.15;;
24547;SDS011;12713;51.624;4.924;2023-04-25T04:43:31;17.02;;;5.15;;
24547;SDS011;12713;51.624;4.924;2023-04-25T04:45:58;12.63;;;4.82;;
24547;SDS011;12713;51.624;4.924;2023-04-25T04:48:26;19.95;;;4.97;;
24547;SDS011;12713;51.624;4.924;2023-04-25T04:50:53;10.00;;;4.15;;
24547;SDS011;12713;51.624;4.924;2023-04-25T04:53:19;9.45;;;4.00;;
24547;SDS011;12713;51.624;4.924;2023-04-25T04:55:45;13.98;;;4.30;;
24547;SDS011;12713;51.624;4.924;2023-04-25T04:58:11;10.45;;;4.00;;
24547;SDS011;12713;51.624;4.924;2023-04-25T05:00:37;13.93;;;4.30;;
24547;SDS011;12713;51.624;4.924;2023-04-25T05:03:04;21.13;;;4.60;;
24547;SDS011;12713;51.624;4.924;2023-04-25T05:05:30;7.97;;;3.38;;
24547;SDS011;12713;51.624;4.924;2023-04-25T05:07:56;13.85;;;3.70;;
24547;SDS011;12713;51.624;4.924;2023-04-25T05:10:22;11.25;;;3.63;;
24547;SDS011;12713;51.624;4.924;2023-04-25T05:12:48;9.93;;;3.45;;
24547;SDS011;12713;51.624;4.924;2023-04-25T05:15:14;9.13;;;3.75;;
24547;SDS011;12713;51.624;4.924;2023-04-25T05:17:40;11.30;;;3.72;;
24547;SDS011;12713;51.624;4.924;2023-04-25T05:20:07;12.35;;;4.10;;
24547;SDS011;12713;51.624;4.924;2023-04-25T05:22:34;9.02;;;3.58;;
24547;SDS011;12713;51.624;4.924;2023-04-25T05:25:00;12.50;;;3.03;;
24547;SDS011;12713;51.624;4.924;2023-04-25T05:27:27;14.02;;;3.75;;
24547;SDS011;12713;51.624;4.924;2023-04-25T05:29:53;11.05;;;3.30;;
24547;SDS011;12713;51.624;4.924;2023-04-25T05:32:19;9.73;;;3.63;;
24547;SDS011;12713;51.624;4.924;2023-04-25T05:34:45;12.38;;;3.95;;
24547;SDS011;12713;51.624;4.924;2023-04-25T05:37:11;9.27;;;3.50;;
24547;SDS011;12713;51.624;4.924;2023-04-25T05:39:37;13.48;;;3.72;;
24547;SDS011;12713;51.624;4.924;2023-04-25T05:42:03;7.25;;;3.45;;
24547;SDS011;12713;51.624;4.924;2023-04-25T05:44:30;11.57;;;3.53;;
24547;SDS011;12713;51.624;4.924;2023-04-25T05:46:56;10.25;;;3.22;;
24547;SDS011;12713;51.624;4.924;2023-04-25T05:49:22;11.25;;;3.40;;
24547;SDS011;12713;51.624;4.924;2023-04-25T05:51:48;13.68;;;3.80;;
24547;SDS011;12713;51.624;4.924;2023-04-25T05:54:14;11.95;;;3.80;;
24547;SDS011;12713;51.624;4.924;2023-04-25T05:56:40;9.38;;;3.10;;
24547;SDS011;12713;51.624;4.924;2023-04-25T05:59:06;8.75;;;2.58;;
24547;SDS011;12713;51.624;4.924;2023-04-25T06:01:32;10.57;;;3.00;;
24547;SDS011;12713;51.624;4.924;2023-04-25T06:03:58;6.60;;;3.10;;
24547;SDS011;12713;51.624;4.924;2023-04-25T06:06:24;11.27;;;2.75;;
24547;SDS011;12713;51.624;4.924;2023-04-25T06:08:52;11.35;;;3.88;;
24547;SDS011;12713;51.624;4.924;2023-04-25T06:11:19;10.95;;;2.63;;
24547;SDS011;12713;51.624;4.924;2023-04-25T06:13:45;9.65;;;3.50;;
24547;SDS011;12713;51.624;4.924;2023-04-25T06:16:11;13.18;;;3.50;;
24547;SDS011;12713;51.624;4.924;2023-04-25T06:18:37;18.27;;;3.67;;
24547;SDS011;12713;51.624;4.924;2023-04-25T06:21:03;11.10;;;3.50;;
24547;SDS011;12713;51.624;4.924;2023-04-25T06:23:29;9.77;;;2.83;;
24547;SDS011;12713;51.624;4.924;2023-04-25T06:25:55;8.55;;;3.00;;
24547;SDS011;12713;51.624;4.924;2023-04-25T06:28:22;8.57;;;3.13;;
24547;SDS011;12713;51.624;4.924;2023-04-25T06:30:49;13.15;;;3.85;;
24547;SDS011;12713;51.624;4.924;2023-04-25T06:33:15;13.18;;;3.78;;
24547;SDS011;12713;51.624;4.924;2023-04-25T06:35:41;9.13;;;3.78;;
24547;SDS011;12713;51.624;4.924;2023-04-25T06:38:07;14.68;;;3.47;;
24547;SDS011;12713;51.624;4.924;2023-04-25T06:40:33;13.63;;;3.42;;
24547;SDS011;12713;51.624;4.924;2023-04-25T06:43:00;15.40;;;3.78;;
24547;SDS011;12713;51.624;4.924;2023-04-25T06:45:26;12.90;;;4.80;;
24547;SDS011;12713;51.624;4.924;2023-04-25T06:47:52;16.63;;;4.00;;
24547;SDS011;12713;51.624;4.924;2023-04-25T06:50:18;8.85;;;3.00;;
24547;SDS011;12713;51.624;4.924;2023-04-25T06:52:44;9.82;;;4.50;;
24547;SDS011;12713;51.624;4.924;2023-04-25T06:55:10;11.45;;;3.53;;
24547;SDS011;12713;51.624;4.924;2023-04-25T06:57:36;13.07;;;4.35;;
24547;SDS011;12713;51.624;4.924;2023-04-25T07:00:02;10.05;;;3.83;;
24547;SDS011;12713;51.624;4.924;2023-04-25T07:02:30;15.18;;;4.10;;
24547;SDS011;12713;51.624;4.924;2023-04-25T07:04:56;11.73;;;3.03;;
24547;SDS011;12713;51.624;4.924;2023-04-25T07:07:24;14.00;;;3.53;;
24547;SDS011;12713;51.624;4.924;2023-04-25T07:09:50;10.85;;;3.15;;
24547;SDS011;12713;51.624;4.924;2023-04-25T07:12:16;6.57;;;2.90;;
24547;SDS011;12713;51.624;4.924;2023-04-25T07:14:42;14.25;;;3.70;;
24547;SDS011;12713;51.624;4.924;2023-04-25T07:17:08;9.25;;;2.35;;
24547;SDS011;12713;51.624;4.924;2023-04-25T07:19:34;12.65;;;3.50;;
24547;SDS011;12713;51.624;4.924;2023-04-25T07:22:02;8.40;;;2.58;;
24547;SDS011;12713;51.624;4.924;2023-04-25T07:24:28;12.10;;;2.75;;
24547;SDS011;12713;51.624;4.924;2023-04-25T07:26:54;9.23;;;2.60;;
24547;SDS011;12713;51.624;4.924;2023-04-25T07:29:21;10.70;;;2.20;;
24547;SDS011;12713;51.624;4.924;2023-04-25T07:31:47;7.22;;;2.45;;
24547;SDS011;12713;51.624;4.924;2023-04-25T07:34:13;10.73;;;2.20;;
24547;SDS011;12713;51.624;4.924;2023-04-25T07:36:39;8.45;;;1.98;;
24547;SDS011;12713;51.624;4.924;2023-04-25T07:39:05;5.72;;;1.95;;
24547;SDS011;12713;51.624;4.924;2023-04-25T07:41:31;10.75;;;2.05;;
24547;SDS011;12713;51.624;4.924;2023-04-25T07:43:58;8.18;;;2.00;;
24547;SDS011;12713;51.624;4.924;2023-04-25T07:46:24;4.55;;;1.70;;
24547;SDS011;12713;51.624;4.924;2023-04-25T07:48:50;10.18;;;2.13;;
24547;SDS011;12713;51.624;4.924;2023-04-25T07:51:16;8.73;;;2.35;;
24547;SDS011;12713;51.624;4.924;2023-04-25T07:53:45;5.70;;;2.10;;
24547;SDS011;12713;51.624;4.924;2023-04-25T07:56:11;8.15;;;2.35;;
24547;SDS011;12713;51.624;4.924;2023-04-25T07:58:37;9.57;;;2.50;;
24547;SDS011;12713;51.624;4.924;2023-04-25T08:01:03;7.55;;;2.38;;
24547;SDS011;12713;51.624;4.924;2023-04-25T08:03:29;8.73;;;1.98;;
24547;SDS011;12713;51.624;4.924;2023-04-25T08:05:55;10.63;;;2.67;;
24547;SDS011;12713;51.624;4.924;2023-04-25T08:08:21;5.07;;;1.70;;
24547;SDS011;12713;51.624;4.924;2023-04-25T08:10:47;5.07;;;1.42;;
24547;SDS011;12713;51.624;4.924;2023-04-25T08:13:13;8.13;;;1.98;;
24547;SDS011;12713;51.624;4.924;2023-04-25T08:15:39;7.63;;;1.92;;
24547;SDS011;12713;51.624;4.924;2023-04-25T08:18:05;7.63;;;1.98;;
24547;SDS011;12713;51.624;4.924;2023-04-25T08:20:31;6.25;;;1.67;;
24547;SDS011;12713;51.624;4.924;2023-04-25T08:22:57;7.10;;;1.85;;
24547;SDS011;12713;51.624;4.924;2023-04-25T08:25:23;7.95;;;1.80;;
24547;SDS011;12713;51.624;4.924;2023-04-25T08:27:49;7.78;;;1.80;;
24547;SDS011;12713;51.624;4.924;2023-04-25T08:30:15;10.65;;;2.10;;
24547;SDS011;12713;51.624;4.924;2023-04-25T08:32:41;6.63;;;1.52;;
24547;SDS011;12713;51.624;4.924;2023-04-25T08:35:07;7.47;;;2.03;;
24547;SDS011;12713;51.624;4.924;2023-04-25T08:37:34;8.70;;;2.45;;
24547;SDS011;12713;51.624;4.924;2023-04-25T08:40:01;8.68;;;2.13;;
24547;SDS011;12713;51.624;4.924;2023-04-25T08:42:31;8.13;;;2.53;;
24547;SDS011;12713;51.624;4.924;2023-04-25T08:45:00;12.95;;;2.22;;
24547;SDS011;12713;51.624;4.924;2023-04-25T08:47:27;10.10;;;1.70;;
24547;SDS011;12713;51.624;4.924;2023-04-25T08:49:53;7.72;;;1.75;;
24547;SDS011;12713;51.624;4.924;2023-04-25T08:52:23;8.57;;;2.20;;
24547;SDS011;12713;51.624;4.924;2023-04-25T08:54:49;8.45;;;1.73;;
24547;SDS011;12713;51.624;4.924;2023-04-25T08:57:17;7.50;;;1.55;;
24547;SDS011;12713;51.624;4.924;2023-04-25T08:59:43;7.32;;;1.45;;
24547;SDS011;12713;51.624;4.924;2023-04-25T09:02:11;6.63;;;1.33;;
24547;SDS011;12713;51.624;4.924;2023-04-25T09:04:42;9.23;;;1.95;;
24547;SDS011;12713;51.624;4.924;2023-04-25T09:07:08;12.85;;;2.13;;
24547;SDS011;12713;51.624;4.924;2023-04-25T09:09:34;8.02;;;2.05;;
24547;SDS011;12713;51.624;4.924;2023-04-25T09:12:01;9.43;;;2.08;;
24547;SDS011;12713;51.624;4.924;2023-04-25T09:14:27;7.57;;;1.70;;
24547;SDS011;12713;51.624;4.924;2023-04-25T09:19:23;6.57;;;1.55;;
24547;SDS011;12713;51.624;4.924;2023-04-25T09:21:50;10.68;;;1.95;;
24547;SDS011;12713;51.624;4.924;2023-04-25T09:24:16;7.72;;;1.70;;
24547;SDS011;12713;51.624;4.924;2023-04-25T09:26:45;5.63;;;1.52;;
24547;SDS011;12713;51.624;4.924;2023-04-25T09:29:11;8.02;;;2.10;;
24547;SDS011;12713;51.624;4.924;2023-04-25T09:31:37;7.82;;;1.70;;
24547;SDS011;12713;51.624;4.924;2023-04-25T09:34:03;9.02;;;1.80;;
24547;SDS011;12713;51.624;4.924;2023-04-25T09:36:29;9.60;;;2.30;;
24547;SDS011;12713;51.624;4.924;2023-04-25T09:38:55;7.47;;;1.73;;
24547;SDS011;12713;51.624;4.924;2023-04-25T09:41:24;8.38;;;1.70;;
24547;SDS011;12713;51.624;4.924;2023-04-25T09:43:50;10.18;;;1.52;;
24547;SDS011;12713;51.624;4.924;2023-04-25T09:46:16;7.75;;;1.33;;
24547;SDS011;12713;51.624;4.924;2023-04-25T09:48:49;5.32;;;1.33;;
24547;SDS011;12713;51.624;4.924;2023-04-25T09:51:16;5.22;;;1.17;;
24547;SDS011;12713;51.624;4.924;2023-04-25T09:53:42;4.00;;;1.33;;
24547;SDS011;12713;51.624;4.924;2023-04-25T09:56:09;5.95;;;1.40;;
24547;SDS011;12713;51.624;4.924;2023-04-25T09:58:36;6.53;;;1.20;;
24547;SDS011;12713;51.624;4.924;2023-04-25T10:01:06;2.20;;;1.08;;
24547;SDS011;12713;51.624;4.924;2023-04-25T10:03:33;6.05;;;1.50;;
24547;SDS011;12713;51.624;4.924;2023-04-25T10:06:04;7.38;;;1.73;;
24547;SDS011;12713;51.624;4.924;2023-04-25T10:08:36;6.97;;;1.50;;
24547;SDS011;12713;51.624;4.924;2023-04-25T10:11:03;4.78;;;1.13;;
24547;SDS011;12713;51.624;4.924;2023-04-25T10:13:30;7.68;;;1.98;;
24547;SDS011;12713;51.624;4.924;2023-04-25T10:16:04;5.57;;;1.40;;
24547;SDS011;12713;51.624;4.924;2023-04-25T10:19:02;3.85;;;1.20;;
24547;SDS011;12713;51.624;4.924;2023-04-25T10:21:28;8.07;;;1.38;;
24547;SDS011;12713;51.624;4.924;2023-04-25T10:23:58;10.70;;;1.40;;
24547;SDS011;12713;51.624;4.924;2023-04-25T10:26:24;6.65;;;1.35;;
24547;SDS011;12713;51.624;4.924;2023-04-25T10:28:58;3.75;;;1.40;;
24547;SDS011;12713;51.624;4.924;2023-04-25T10:31:24;5.60;;;1.73;;
24547;SDS011;12713;51.624;4.924;2023-04-25T10:33:51;5.13;;;1.38;;
24547;SDS011;12713;51.624;4.924;2023-04-25T10:36:17;9.18;;;1.70;;
24547;SDS011;12713;51.624;4.924;2023-04-25T10:38:47;6.53;;;1.65;;
24547;SDS011;12713;51.624;4.924;2023-04-25T10:41:15;5.70;;;1.33;;
24547;SDS011;12713;51.624;4.924;2023-04-25T10:43:43;4.97;;;1.40;;
24547;SDS011;12713;51.624;4.924;2023-04-25T10:46:26;7.95;;;1.48;;
24547;SDS011;12713;51.624;4.924;2023-04-25T10:51:27;5.18;;;1.40;;
24547;SDS011;12713;51.624;4.924;2023-04-25T10:56:23;6.05;;;1.23;;
24547;SDS011;12713;51.624;4.924;2023-04-25T10:58:50;7.07;;;1.48;;
24547;SDS011;12713;51.624;4.924;2023-04-25T11:01:21;6.80;;;1.92;;
24547;SDS011;12713;51.624;4.924;2023-04-25T11:03:47;5.65;;;1.52;;
24547;SDS011;12713;51.624;4.924;2023-04-25T11:09:02;8.35;;;1.67;;
24547;SDS011;12713;51.624;4.924;2023-04-25T11:11:28;5.10;;;1.15;;
24547;SDS011;12713;51.624;4.924;2023-04-25T11:13:55;10.77;;;2.28;;
24547;SDS011;12713;51.624;4.924;2023-04-25T11:16:23;5.68;;;1.48;;
24547;SDS011;12713;51.624;4.924;2023-04-25T11:18:52;5.55;;;1.42;;
24547;SDS011;12713;51.624;4.924;2023-04-25T11:21:18;5.13;;;1.63;;
24547;SDS011;12713;51.624;4.924;2023-04-25T11:23:45;9.43;;;1.80;;
24547;SDS011;12713;51.624;4.924;2023-04-25T11:26:12;5.63;;;1.73;;
24547;SDS011;12713;51.624;4.924;2023-04-25T11:28:39;9.30;;;2.28;;
24547;SDS011;12713;51.624;4.924;2023-04-25T11:31:05;4.13;;;1.42;;
24547;SDS011;12713;51.624;4.924;2023-04-25T11:33:31;6.50;;;1.63;;
24547;SDS011;12713;51.624;4.924;2023-04-25T11:35:57;4.43;;;1.48;;
24547;SDS011;12713;51.624;4.924;2023-04-25T11:38:24;4.88;;;1.38;;
24547;SDS011;12713;51.624;4.924;2023-04-25T11:40:53;7.07;;;1.70;;
24547;SDS011;12713;51.624;4.924;2023-04-25T11:43:20;5.05;;;1.55;;
24547;SDS011;12713;51.624;4.924;2023-04-25T11:45:47;7.53;;;1.73;;
24547;SDS011;12713;51.624;4.924;2023-04-25T11:48:13;6.15;;;1.20;;
24547;SDS011;12713;51.624;4.924;2023-04-25T11:50:39;5.05;;;1.52;;
24547;SDS011;12713;51.624;4.924;2023-04-25T11:53:06;6.53;;;1.60;;
24547;SDS011;12713;51.624;4.924;2023-04-25T11:55:35;9.85;;;1.90;;
24547;SDS011;12713;51.624;4.924;2023-04-25T11:58:01;6.55;;;1.85;;
24547;SDS011;12713;51.624;4.924;2023-04-25T12:00:28;5.85;;;1.63;;
24547;SDS011;12713;51.624;4.924;2023-04-25T12:02:55;7.30;;;1.60;;
24547;SDS011;12713;51.624;4.924;2023-04-25T12:05:27;7.07;;;2.40;;
24547;SDS011;12713;51.624;4.924;2023-04-25T12:07:53;7.57;;;1.70;;
24547;SDS011;12713;51.624;4.924;2023-04-25T12:10:20;5.82;;;1.20;;
24547;SDS011;12713;51.624;4.924;2023-04-25T12:12:46;4.20;;;1.55;;
24547;SDS011;12713;51.624;4.924;2023-04-25T12:17:50;11.02;;;1.65;;
24547;SDS011;12713;51.624;4.924;2023-04-25T12:20:25;5.00;;;1.35;;
24547;SDS011;12713;51.624;4.924;2023-04-25T12:22:52;7.80;;;1.40;;
24547;SDS011;12713;51.624;4.924;2023-04-25T12:30:57;7.57;;;1.20;;
24547;SDS011;12713;51.624;4.924;2023-04-25T12:33:24;8.77;;;1.92;;
24547;SDS011;12713;51.624;4.924;2023-04-25T12:35:51;7.07;;;1.27;;
24547;SDS011;12713;51.624;4.924;2023-04-25T12:38:27;5.80;;;1.48;;
24547;SDS011;12713;51.624;4.924;2023-04-25T12:40:58;7.32;;;1.38;;
24547;SDS011;12713;51.624;4.924;2023-04-25T12:43:24;6.28;;;1.05;;
24547;SDS011;12713;51.624;4.924;2023-04-25T12:45:51;6.30;;;1.27;;
24547;SDS011;12713;51.624;4.924;2023-04-25T12:48:23;4.68;;;1.50;;
24547;SDS011;12713;51.624;4.924;2023-04-25T12:50:49;5.88;;;1.23;;
24547;SDS011;12713;51.624;4.924;2023-04-25T12:53:17;11.15;;;1.85;;
24547;SDS011;12713;51.624;4.924;2023-04-25T12:55:44;9.63;;;1.60;;
24547;SDS011;12713;51.624;4.924;2023-04-25T12:58:11;5.50;;;1.58;;
24547;SDS011;12713;51.624;4.924;2023-04-25T13:00:38;5.35;;;1.20;;
24547;SDS011;12713;51.624;4.924;2023-04-25T13:03:04;7.75;;;1.70;;
24547;SDS011;12713;51.624;4.924;2023-04-25T13:05:30;4.88;;;1.50;;
24547;SDS011;12713;51.624;4.924;2023-04-25T13:07:56;6.47;;;1.45;;
24547;SDS011;12713;51.624;4.924;2023-04-25T13:10:22;5.85;;;1.33;;
24547;SDS011;12713;51.624;4.924;2023-04-25T13:12:48;6.05;;;1.27;;
24547;SDS011;12713;51.624;4.924;2023-04-25T13:15:14;3.78;;;1.33;;
24547;SDS011;12713;51.624;4.924;2023-04-25T13:17:44;8.60;;;1.50;;
24547;SDS011;12713;51.624;4.924;2023-04-25T13:20:10;4.10;;;1.40;;
24547;SDS011;12713;51.624;4.924;2023-04-25T13:22:37;3.88;;;1.35;;
24547;SDS011;12713;51.624;4.924;2023-04-25T13:25:04;6.05;;;1.83;;
24547;SDS011;12713;51.624;4.924;2023-04-25T13:27:30;6.57;;;1.98;;
24547;SDS011;12713;51.624;4.924;2023-04-25T13:29:58;6.93;;;1.48;;
24547;SDS011;12713;51.624;4.924;2023-04-25T13:32:25;3.97;;;1.27;;
24547;SDS011;12713;51.624;4.924;2023-04-25T13:34:51;7.60;;;1.63;;
24547;SDS011;12713;51.624;4.924;2023-04-25T13:37:18;4.82;;;1.23;;
24547;SDS011;12713;51.624;4.924;2023-04-25T13:39:44;6.20;;;1.50;;
24547;SDS011;12713;51.624;4.924;2023-04-25T13:42:10;5.53;;;1.85;;
24547;SDS011;12713;51.624;4.924;2023-04-25T13:44:36;5.80;;;1.55;;
24547;SDS011;12713;51.624;4.924;2023-04-25T13:47:02;7.80;;;1.60;;
24547;SDS011;12713;51.624;4.924;2023-04-25T13:49:28;4.93;;;1.30;;
24547;SDS011;12713;51.624;4.924;2023-04-25T13:51:54;4.15;;;1.20;;
24547;SDS011;12713;51.624;4.924;2023-04-25T13:54:20;5.15;;;1.88;;
24547;SDS011;12713;51.624;4.924;2023-04-25T13:56:49;7.28;;;1.35;;
24547;SDS011;12713;51.624;4.924;2023-04-25T13:59:15;6.57;;;1.75;;
24547;SDS011;12713;51.624;4.924;2023-04-25T14:01:41;4.40;;;1.00;;
24547;SDS011;12713;51.624;4.924;2023-04-25T14:04:08;5.22;;;1.52;;
24547;SDS011;12713;51.624;4.924;2023-04-25T14:06:34;6.28;;;1.35;;
24547;SDS011;12713;51.624;4.924;2023-04-25T14:09:00;5.20;;;1.20;;
24547;SDS011;12713;51.624;4.924;2023-04-25T14:11:26;5.05;;;1.45;;
24547;SDS011;12713;51.624;4.924;2023-04-25T14:13:52;6.22;;;1.50;;
24547;SDS011;12713;51.624;4.924;2023-04-25T14:16:18;7.68;;;1.73;;
24547;SDS011;12713;51.624;4.924;2023-04-25T14:18:45;5.70;;;1.73;;
24547;SDS011;12713;51.624;4.924;2023-04-25T14:21:11;4.63;;;1.38;;
24547;SDS011;12713;51.624;4.924;2023-04-25T14:23:37;3.90;;;1.08;;
24547;SDS011;12713;51.624;4.924;2023-04-25T14:26:03;7.00;;;1.70;;
24547;SDS011;12713;51.624;4.924;2023-04-25T14:28:29;6.55;;;1.80;;
24547;SDS011;12713;51.624;4.924;2023-04-25T14:30:55;3.28;;;1.38;;
24547;SDS011;12713;51.624;4.924;2023-04-25T14:33:21;10.38;;;1.98;;
24547;SDS011;12713;51.624;4.924;2023-04-25T14:35:48;5.60;;;1.23;;
24547;SDS011;12713;51.624;4.924;2023-04-25T14:38:14;7.20;;;1.70;;
24547;SDS011;12713;51.624;4.924;2023-04-25T14:40:40;5.82;;;1.80;;
24547;SDS011;12713;51.624;4.924;2023-04-25T14:43:07;5.03;;;1.38;;
24547;SDS011;12713;51.624;4.924;2023-04-25T14:45:33;6.07;;;1.25;;
24547;SDS011;12713;51.624;4.924;2023-04-25T14:48:00;11.77;;;1.80;;
24547;SDS011;12713;51.624;4.924;2023-04-25T14:50:27;5.93;;;1.42;;
24547;SDS011;12713;51.624;4.924;2023-04-25T14:52:53;5.80;;;1.48;;
24547;SDS011;12713;51.624;4.924;2023-04-25T14:55:23;7.47;;;1.30;;